SBRJSBSC

Guest
Details From SBRJ - Santos-Dumont
To SBSC - SANTA CRUZ
Flight Number -
Tags generated
Created
Modified
Stats Distance 32 nm / 60 km
Max Altitude 200 ft / 61 m
Waypoints 3
Social Downloads 3
Likes 0
Share VATSIM

Download

Looking for another format? Having issues loading an existing format? Contact us
Advertisement - Login to hide

Notes

Basic altitude profile: - Ascent Rate: 2500ft/min - Ascent Speed: 180kts - Cruise Altitude: 1900ft - Cruise Speed: 420kts - Descent Rate: 700ft/min - Descent Speed: 250kts Options: - Use NATs: yes - Use PACOTS: yes - Use low airways: yes - Use high airways: yes

Route

SBRJ SCR SBSC

ID Type Via Altitude Latitude Longitude Leg Dist Tot Dist Heading (true) Name
O SBRJ APT - 0 ft / 0 m -22.91046˚ -43.16313˚ - 0 nm - Santos-Dumont
SCR VOR - 200 ft / 61 m -22.94963˚ -43.72768˚ 31 nm 31 nm 266° / 266° -
O SBSC APT - 0 ft / 0 m -22.93249˚ -43.71909˚ 1 nm 32 nm 25° / 25° SANTA CRUZ

Altitude Profile

Advertisement - Login to hide

SBRJ

Details ICAO SBRJ (SDU)
Name Santos-Dumont
Region Brazil
Timezone Unknown (UTC+0.0)
Stats Elevation 11 ft / 3 m (AMSL)
Location -22.910460° -43.163133°
Runways 2
Magnetic Variation 22.826° W

METAR

Not found

TAF

TAF SBRJ 272030Z 2800/2812 15005KT 9999 FEW020TN20/2809Z TX23/2812Z BECMG 2802/2804 06005KT BECMG 2809/2811 34005KT PROB40 2809/2812 4000 BR SCT010 RMK PHI

Decode

Departure Runways

ID Width Length Bearing (true) Bearing (mag) Surface Threshold Offset Overrun Length
02L 98 ft / 30 m 4,154 ft / 1,266 m 358.02° 20.85° Asphalt 0 ft / 0 m 80 ft / 24 m
02R 138 ft / 42 m 4,361 ft / 1,329 m 358.01° 20.84° Asphalt 0 ft / 0 m 80 ft / 24 m
20L 138 ft / 42 m 4,361 ft / 1,329 m 178.01° 200.84° Asphalt 0 ft / 0 m 80 ft / 24 m
20R 98 ft / 30 m 4,154 ft / 1,266 m 178.02° 200.85° Asphalt 0 ft / 0 m 95 ft / 29 m

SBSC

Details ICAO SBSC (STU)
Name SANTA CRUZ
Region Brazil
Timezone America/Sao_Paulo (UTC-3.0)
Stats Elevation 10 ft / 3 m (AMSL)
Location -22.932489° -43.719090°
Runways 1
Magnetic Variation 22.632° W

METAR

Not found

TAF

TAF SBSC 272230Z 2800/2812 25007KT CAVOK TX19/2800Z TN17/2808Z BECMG 2806/2809 35005KT 7000 NSC PROB40 2809/2812 4000 BR FEW010 RMK PEB

Decode

Destination Runways

ID Width Length Bearing (true) Bearing (mag) Surface Threshold Offset Overrun Length
05 148 ft / 45 m 9,039 ft / 2,755 m 24.13° 46.76° Asphalt 0 ft / 0 m 1,145 ft / 349 m
23 148 ft / 45 m 9,039 ft / 2,755 m 204.12° 226.75° Asphalt 0 ft / 0 m 1,145 ft / 349 m

Popular Alternatives